createdAt,value
2023-04-15T00:00:36.414Z,6.84
2023-04-15T00:01:38.020Z,6.83
2023-04-15T00:02:39.822Z,6.82
2023-04-15T00:03:42.157Z,6.86
2023-04-15T00:04:44.618Z,6.85
2023-04-15T00:05:46.706Z,6.86
2023-04-15T00:06:57.194Z,6.86
2023-04-15T00:08:01.576Z,6.84
2023-04-15T00:09:03.883Z,6.81
2023-04-15T00:10:05.815Z,6.81
2023-04-15T00:11:07.318Z,6.81
2023-04-15T00:12:09.239Z,6.80
2023-04-15T00:13:10.740Z,6.79
2023-04-15T00:14:12.814Z,6.79
2023-04-15T00:15:14.539Z,6.77
2023-04-15T00:16:16.345Z,6.77
2023-04-15T00:17:18.320Z,6.77
2023-04-15T00:18:19.861Z,6.77
2023-04-15T00:19:21.630Z,6.78
2023-04-15T00:20:23.596Z,6.79
2023-04-15T00:21:25.170Z,6.79
2023-04-15T00:22:27.348Z,6.78
2023-04-15T00:23:28.922Z,6.78
2023-04-15T00:24:31.579Z,6.74
2023-04-15T00:25:33.080Z,6.76
2023-04-15T00:26:37.742Z,6.76
2023-04-15T00:27:39.411Z,6.77
2023-04-15T00:28:40.881Z,6.78
2023-04-15T00:29:44.609Z,6.79
2023-04-15T00:30:46.354Z,6.80
2023-04-15T00:31:48.173Z,6.82
2023-04-15T00:32:49.871Z,6.82
2023-04-15T00:33:55.835Z,6.81
2023-04-15T00:35:02.296Z,6.82
2023-04-15T00:36:06.629Z,6.81
2023-04-15T00:37:08.791Z,6.82
2023-04-15T00:38:10.644Z,6.82
2023-04-15T00:39:12.152Z,6.81
2023-04-15T00:40:14.068Z,6.82
2023-04-15T00:41:15.765Z,6.80
2023-04-15T00:42:20.228Z,6.80
2023-04-15T00:43:21.778Z,6.81
2023-04-15T00:44:23.358Z,6.83
2023-04-15T00:45:25.572Z,6.86
2023-04-15T00:46:27.185Z,6.86
2023-04-15T00:47:29.742Z,6.88
2023-04-15T00:48:32.430Z,6.87
2023-04-15T00:49:34.133Z,6.87
2023-04-15T00:50:38.868Z,6.86
2023-04-15T00:51:40.602Z,6.84
2023-04-15T00:52:42.228Z,6.82
2023-04-15T00:53:43.720Z,6.82
2023-04-15T00:54:45.422Z,6.83
2023-04-15T00:55:46.871Z,6.86
2023-04-15T00:56:48.459Z,6.86
2023-04-15T00:57:50.628Z,6.86
2023-04-15T00:58:52.320Z,6.84
2023-04-15T00:59:55.697Z,6.84
2023-04-15T01:00:57.221Z,6.83
2023-04-15T01:01:58.894Z,6.84
2023-04-15T01:03:00.684Z,6.85
2023-04-15T01:04:03.101Z,6.87
2023-04-15T01:05:07.514Z,6.88
2023-04-15T01:06:09.226Z,6.88
2023-04-15T01:07:11.002Z,6.87
2023-04-15T01:08:12.673Z,6.86
2023-04-15T01:09:14.288Z,6.87
2023-04-15T01:10:16.036Z,6.86
2023-04-15T01:11:18.159Z,6.88
2023-04-15T01:12:20.506Z,6.87
2023-04-15T01:13:24.937Z,6.86
2023-04-15T01:14:26.559Z,6.86
2023-04-15T01:15:28.173Z,6.86
2023-04-15T01:16:32.596Z,6.86
2023-04-15T01:17:34.515Z,6.87
2023-04-15T01:18:37.693Z,6.87
2023-04-15T01:19:41.739Z,6.88
2023-04-15T01:20:43.522Z,6.88
2023-04-15T01:21:45.406Z,6.85
2023-04-15T01:22:47.059Z,6.84
2023-04-15T01:23:49.309Z,6.84
2023-04-15T01:25:20.213Z,6.84
2023-04-15T01:26:22.186Z,6.84
2023-04-15T01:27:23.803Z,6.83
2023-04-15T01:28:25.898Z,6.84
2023-04-15T01:29:27.930Z,6.84
2023-04-15T01:30:31.775Z,6.84
2023-04-15T01:31:33.401Z,6.86
2023-04-15T01:32:35.236Z,6.86
2023-04-15T01:33:37.126Z,6.86
2023-04-15T01:34:38.612Z,6.86
2023-04-15T01:35:40.384Z,6.87
2023-04-15T01:36:41.960Z,6.87
2023-04-15T01:37:43.387Z,6.88
2023-04-15T01:38:44.884Z,6.89
2023-04-15T01:39:46.356Z,6.90
2023-04-15T01:40:47.988Z,6.89
2023-04-15T01:41:49.679Z,6.90
2023-04-15T01:42:51.103Z,6.91
2023-04-15T01:43:52.714Z,6.90
2023-04-15T01:44:56.734Z,6.93
2023-04-15T01:45:58.441Z,6.92
2023-04-15T01:47:00.697Z,6.93
2023-04-15T01:48:02.327Z,6.94
2023-04-15T01:49:03.872Z,6.94
2023-04-15T01:50:07.350Z,6.94
2023-04-15T01:51:08.923Z,6.92
2023-04-15T01:52:10.893Z,6.91
2023-04-15T01:53:12.502Z,6.90
2023-04-15T01:54:15.754Z,6.89
2023-04-15T01:55:17.259Z,6.88
2023-04-15T01:56:20.577Z,6.90
2023-04-15T01:57:25.931Z,6.89
2023-04-15T01:58:27.415Z,6.90
2023-04-15T01:59:32.115Z,6.88
2023-04-15T02:00:33.821Z,6.88
2023-04-15T02:01:35.502Z,6.89
2023-04-15T02:02:37.083Z,6.89
2023-04-15T02:03:39.660Z,6.89
2023-04-15T02:04:41.206Z,6.91
2023-04-15T02:05:42.697Z,6.90
2023-04-15T02:06:46.287Z,6.91
2023-04-15T02:07:49.622Z,6.91
2023-04-15T02:08:51.222Z,6.91
2023-04-15T02:09:53.680Z,6.92
2023-04-15T02:10:55.320Z,6.93
2023-04-15T02:11:57.411Z,6.93
2023-04-15T02:12:59.408Z,6.91
2023-04-15T02:14:05.787Z,6.92
2023-04-15T02:15:07.514Z,6.92
2023-04-15T02:16:19.026Z,6.92
2023-04-15T02:17:20.808Z,6.91
2023-04-15T02:18:22.307Z,6.93
2023-04-15T02:19:25.554Z,6.94
2023-04-15T02:20:27.427Z,6.94
2023-04-15T02:21:28.985Z,6.96
2023-04-15T02:22:31.215Z,6.93
2023-04-15T02:23:32.672Z,6.93
2023-04-15T02:24:34.794Z,6.94
2023-04-15T02:25:39.135Z,6.94
2023-04-15T02:26:41.572Z,6.96
2023-04-15T02:27:47.096Z,6.98
2023-04-15T02:28:51.655Z,6.99
2023-04-15T02:29:53.325Z,7.00
2023-04-15T02:30:57.534Z,7.01
2023-04-15T02:31:59.010Z,7.02
2023-04-15T02:33:02.340Z,7.02
2023-04-15T02:34:04.706Z,7.03
2023-04-15T02:35:07.633Z,7.02
2023-04-15T02:36:11.523Z,7.02
2023-04-15T02:37:13.648Z,7.00
2023-04-15T02:38:16.825Z,7.00
2023-04-15T02:39:19.088Z,7.01
2023-04-15T02:40:21.108Z,7.00
2023-04-15T02:41:27.146Z,7.00
2023-04-15T02:42:30.457Z,7.01
2023-04-15T02:43:35.500Z,7.00
2023-04-15T02:44:37.335Z,7.00
2023-04-15T02:45:39.728Z,6.99
2023-04-15T02:46:41.332Z,6.97
2023-04-15T02:47:43.528Z,6.99
2023-04-15T02:48:45.957Z,6.98
2023-04-15T02:49:47.475Z,6.99
2023-04-15T02:50:50.097Z,6.99
2023-04-15T02:51:53.216Z,6.99
2023-04-15T02:52:56.095Z,7.00
2023-04-15T02:53:58.266Z,7.00
2023-04-15T02:55:02.511Z,7.02
2023-04-15T02:56:06.081Z,7.03
2023-04-15T02:57:07.710Z,7.03
2023-04-15T02:58:09.636Z,7.04
2023-04-15T02:59:12.353Z,7.03
2023-04-15T03:00:14.536Z,7.01
2023-04-15T03:01:18.316Z,7.02
2023-04-15T03:02:20.059Z,7.02
2023-04-15T03:03:21.624Z,7.04
2023-04-15T03:04:23.154Z,7.04
2023-04-15T03:05:25.450Z,7.07
2023-04-15T03:06:27.027Z,7.07
2023-04-15T03:07:28.567Z,7.08
2023-04-15T03:08:30.862Z,7.09
2023-04-15T03:09:33.023Z,7.08
2023-04-15T03:10:37.202Z,7.08
2023-04-15T03:11:40.732Z,7.07
2023-04-15T03:12:43.795Z,7.07
2023-04-15T03:13:50.604Z,7.04
2023-04-15T03:15:04.410Z,7.05
2023-04-15T03:16:13.042Z,7.05
2023-04-15T03:17:14.590Z,7.05
2023-04-15T03:18:18.979Z,7.06
2023-04-15T03:19:20.642Z,7.06
2023-04-15T03:20:22.174Z,7.07
2023-04-15T03:21:23.973Z,7.08
2023-04-15T03:22:26.586Z,7.07
2023-04-15T03:23:31.324Z,7.07
2023-04-15T03:24:32.803Z,7.05
2023-04-15T03:25:35.408Z,7.07
2023-04-15T03:26:41.544Z,7.06
2023-04-15T03:27:47.001Z,7.07
2023-04-15T03:28:48.517Z,7.09
2023-04-15T03:29:51.940Z,7.10
2023-04-15T03:30:54.406Z,7.09
2023-04-15T03:31:56.250Z,7.10
2023-04-15T03:32:58.046Z,7.11
2023-04-15T03:34:00.779Z,7.11
2023-04-15T03:35:02.237Z,7.11
2023-04-15T03:36:03.792Z,7.09
2023-04-15T03:37:05.555Z,7.09
2023-04-15T03:38:10.240Z,7.08
2023-04-15T03:39:11.791Z,7.08
2023-04-15T03:40:13.224Z,7.09
2023-04-15T03:41:16.441Z,7.07
2023-04-15T03:42:18.144Z,7.09
2023-04-15T03:43:20.138Z,7.09
2023-04-15T03:44:21.717Z,7.08
2023-04-15T03:45:23.101Z,7.08
2023-04-15T03:46:24.652Z,7.08
2023-04-15T03:47:26.308Z,7.08
2023-04-15T03:48:27.872Z,7.09
2023-04-15T03:49:29.512Z,7.09
2023-04-15T03:50:31.103Z,7.09
2023-04-15T03:51:32.604Z,7.09
2023-04-15T03:52:34.160Z,7.09
2023-04-15T03:53:35.776Z,7.09
2023-04-15T03:54:37.226Z,7.09
2023-04-15T03:55:38.711Z,7.10
2023-04-15T03:56:40.249Z,7.10
2023-04-15T03:57:41.910Z,7.10
2023-04-15T03:58:43.347Z,7.13
2023-04-15T03:59:44.773Z,7.12
2023-04-15T04:00:46.456Z,7.12
2023-04-15T04:01:47.974Z,7.14
2023-04-15T04:02:49.862Z,7.13
2023-04-15T04:03:51.665Z,7.14
2023-04-15T04:04:54.856Z,7.15
2023-04-15T04:05:59.357Z,7.13
2023-04-15T04:07:01.012Z,7.16
2023-04-15T04:08:02.587Z,7.15
2023-04-15T04:09:04.000Z,7.16
2023-04-15T04:10:08.774Z,7.18
2023-04-15T04:11:10.444Z,7.18
2023-04-15T04:12:11.938Z,7.16
2023-04-15T04:13:13.653Z,7.16
2023-04-15T04:14:15.505Z,7.16
2023-04-15T04:15:17.050Z,7.18
2023-04-15T04:16:18.653Z,7.18
2023-04-15T04:17:20.554Z,7.19
2023-04-15T04:18:22.035Z,7.19
2023-04-15T04:19:23.467Z,7.19
2023-04-15T04:20:25.015Z,7.19
2023-04-15T04:21:26.762Z,7.18
2023-04-15T04:22:28.568Z,7.16
2023-04-15T04:23:32.492Z,7.15
2023-04-15T04:24:33.979Z,7.14
2023-04-15T04:25:35.474Z,7.12
2023-04-15T04:26:37.069Z,7.10
2023-04-15T04:27:38.567Z,7.09
2023-04-15T04:28:40.591Z,7.09
2023-04-15T04:29:42.126Z,7.09
2023-04-15T04:30:43.833Z,7.10
2023-04-15T04:31:46.922Z,7.10
2023-04-15T04:32:49.698Z,7.11
2023-04-15T04:33:51.243Z,7.13
2023-04-15T04:34:52.681Z,7.13
2023-04-15T04:35:56.349Z,7.14
2023-04-15T04:36:57.897Z,7.14
2023-04-15T04:37:59.418Z,7.14
2023-04-15T04:39:03.944Z,7.15
2023-04-15T04:40:05.868Z,7.15
2023-04-15T04:41:07.315Z,7.17
2023-04-15T04:42:10.712Z,7.18
2023-04-15T04:43:12.649Z,7.17
2023-04-15T04:44:14.287Z,7.18
2023-04-15T04:45:18.762Z,7.19
2023-04-15T04:46:20.666Z,7.19
2023-04-15T04:47:22.317Z,7.20
2023-04-15T04:48:23.863Z,7.21
2023-04-15T04:49:27.470Z,7.19
2023-04-15T04:50:28.959Z,7.21
2023-04-15T04:51:31.210Z,7.21
2023-04-15T04:52:32.672Z,7.21
2023-04-15T04:53:34.129Z,7.21
2023-04-15T04:54:35.877Z,7.22
2023-04-15T04:55:37.459Z,7.22
2023-04-15T04:56:42.103Z,7.24
2023-04-15T04:57:43.649Z,7.25
2023-04-15T04:58:45.177Z,7.26
2023-04-15T04:59:46.618Z,7.25
2023-04-15T05:00:48.166Z,7.26
2023-04-15T05:01:49.699Z,7.26
2023-04-15T05:02:51.536Z,7.25
2023-04-15T05:03:53.287Z,7.25
2023-04-15T05:04:57.765Z,7.24
2023-04-15T05:05:59.517Z,7.24
2023-04-15T05:07:01.044Z,7.24
2023-04-15T05:08:02.772Z,7.23
2023-04-15T05:09:04.787Z,7.23
2023-04-15T05:10:06.771Z,7.23
2023-04-15T05:11:08.989Z,7.22
2023-04-15T05:12:15.024Z,7.23
2023-04-15T05:13:16.556Z,7.23
2023-04-15T05:14:23.523Z,7.24
2023-04-15T05:15:25.412Z,7.25
2023-04-15T05:16:26.962Z,7.22
2023-04-15T05:17:28.931Z,7.25
2023-04-15T05:18:31.505Z,7.25
2023-04-15T05:19:33.008Z,7.25
2023-04-15T05:20:34.653Z,7.25
2023-04-15T05:21:38.267Z,7.26
2023-04-15T05:22:40.894Z,7.26
2023-04-15T05:23:42.409Z,7.26
2023-04-15T05:24:43.848Z,7.28
2023-04-15T05:25:45.497Z,7.28
2023-04-15T05:26:47.110Z,7.29
2023-04-15T05:27:48.552Z,7.30
2023-04-15T05:28:50.300Z,7.28
2023-04-15T05:29:51.719Z,7.28
2023-04-15T05:30:53.161Z,7.30
2023-04-15T05:31:54.770Z,7.29
2023-04-15T05:32:56.332Z,7.29
2023-04-15T05:33:57.775Z,7.29
2023-04-15T05:35:01.249Z,7.28
2023-04-15T05:36:05.794Z,7.27
2023-04-15T05:37:07.218Z,7.29
2023-04-15T05:38:10.973Z,7.30
2023-04-15T05:39:12.832Z,7.30
2023-04-15T05:40:17.417Z,7.31
2023-04-15T05:41:19.884Z,7.31
2023-04-15T05:42:21.527Z,7.30
2023-04-15T05:43:22.966Z,7.30
2023-04-15T05:44:24.503Z,7.31
2023-04-15T05:45:26.237Z,7.33
2023-04-15T05:46:27.762Z,7.33
2023-04-15T05:47:29.368Z,7.34
2023-04-15T05:48:30.835Z,7.34
2023-04-15T05:49:32.308Z,7.35
2023-04-15T05:50:35.251Z,7.33
2023-04-15T05:51:37.053Z,7.32
2023-04-15T05:52:38.597Z,7.31
2023-04-15T05:53:41.594Z,7.32
2023-04-15T05:54:43.023Z,7.30
2023-04-15T05:55:44.653Z,7.30
2023-04-15T05:56:46.030Z,7.28
2023-04-15T05:57:47.951Z,7.28
2023-04-15T05:58:53.370Z,7.28
2023-04-15T05:59:57.263Z,7.27
2023-04-15T06:00:58.952Z,7.27
2023-04-15T06:02:00.956Z,7.28
2023-04-15T06:03:02.419Z,7.27
2023-04-15T06:04:04.107Z,7.29
2023-04-15T06:05:09.878Z,7.30
2023-04-15T06:06:11.605Z,7.31
2023-04-15T06:07:13.051Z,7.30
2023-04-15T06:08:14.722Z,7.31
2023-04-15T06:09:16.867Z,7.30
2023-04-15T06:10:18.407Z,7.31
2023-04-15T06:11:22.848Z,7.30
2023-04-15T06:12:24.727Z,7.30
2023-04-15T06:13:26.209Z,7.28
2023-04-15T06:14:28.445Z,7.26
2023-04-15T06:15:33.871Z,7.26
2023-04-15T06:16:36.669Z,7.27
2023-04-15T06:17:38.290Z,7.27
2023-04-15T06:18:39.997Z,7.27
2023-04-15T06:19:41.429Z,7.26
2023-04-15T06:20:45.850Z,7.27
2023-04-15T06:21:47.454Z,7.26
2023-04-15T06:22:50.515Z,7.25
2023-04-15T06:23:52.180Z,7.26
2023-04-15T06:24:54.733Z,7.26
2023-04-15T06:25:56.266Z,7.26
2023-04-15T06:26:57.752Z,7.24
2023-04-15T06:27:59.595Z,7.24
2023-04-15T06:29:01.557Z,7.23
2023-04-15T06:30:03.573Z,7.21
2023-04-15T06:31:05.697Z,7.22
2023-04-15T06:32:07.149Z,7.24
2023-04-15T06:33:09.283Z,7.25
2023-04-15T06:34:11.607Z,7.27
2023-04-15T06:35:13.067Z,7.27
2023-04-15T06:36:15.498Z,7.27
2023-04-15T06:37:16.975Z,7.27
2023-04-15T06:38:18.612Z,7.27
2023-04-15T06:39:20.984Z,7.28
2023-04-15T06:40:22.441Z,7.31
2023-04-15T06:41:25.453Z,7.31
2023-04-15T06:42:27.971Z,7.33
2023-04-15T06:43:31.038Z,7.34
2023-04-15T06:44:33.873Z,7.34
2023-04-15T06:45:35.678Z,7.33
2023-04-15T06:46:37.226Z,7.33
2023-04-15T06:47:38.825Z,7.33
2023-04-15T06:48:40.580Z,7.35
2023-04-15T06:49:43.154Z,7.35
2023-04-15T06:50:47.180Z,7.35
2023-04-15T06:51:48.694Z,7.34
2023-04-15T06:52:50.769Z,7.34
2023-04-15T06:53:52.185Z,7.30
2023-04-15T06:54:53.705Z,7.31
2023-04-15T06:55:55.616Z,7.32
2023-04-15T06:56:57.048Z,7.32
2023-04-15T06:57:58.616Z,7.32
2023-04-15T06:59:00.329Z,7.34
2023-04-15T07:00:02.517Z,7.33
2023-04-15T07:01:06.764Z,7.35
2023-04-15T07:02:09.917Z,7.36
2023-04-15T07:03:12.869Z,7.38
2023-04-15T07:04:14.711Z,7.35
2023-04-15T07:05:16.200Z,7.36
2023-04-15T07:06:17.753Z,7.35
2023-04-15T07:07:19.660Z,7.39
2023-04-15T07:08:22.124Z,7.39
2023-04-15T07:09:24.786Z,7.39
2023-04-15T07:10:26.196Z,7.38
2023-04-15T07:11:27.721Z,7.39
2023-04-15T07:12:29.604Z,7.39
2023-04-15T07:13:33.015Z,7.40
2023-04-15T07:14:34.618Z,7.40
2023-04-15T07:15:36.176Z,7.42
2023-04-15T07:16:37.727Z,7.43
2023-04-15T07:17:39.518Z,7.46
2023-04-15T07:18:41.198Z,7.47
2023-04-15T07:19:42.684Z,7.48
2023-04-15T07:20:44.447Z,7.49
2023-04-15T07:21:45.878Z,7.48
2023-04-15T07:22:47.418Z,7.51
2023-04-15T07:23:48.976Z,7.51
2023-04-15T07:24:53.614Z,7.53
2023-04-15T07:25:55.132Z,7.55
2023-04-15T07:26:59.529Z,7.55
2023-04-15T07:28:02.557Z,7.57
2023-04-15T07:29:04.324Z,7.59
2023-04-15T07:30:06.387Z,7.60
2023-04-15T07:31:07.858Z,7.59
2023-04-15T07:32:10.832Z,7.61
2023-04-15T07:33:12.330Z,7.62
2023-04-15T07:34:13.788Z,7.63
2023-04-15T07:35:15.624Z,7.63
2023-04-15T07:36:17.049Z,7.64
2023-04-15T07:37:19.243Z,7.65
2023-04-15T07:38:20.852Z,7.68
2023-04-15T07:39:25.852Z,7.70
2023-04-15T07:40:27.419Z,7.72
2023-04-15T07:41:29.638Z,7.73
2023-04-15T07:42:31.172Z,7.73
2023-04-15T07:43:32.640Z,7.75
2023-04-15T07:44:35.293Z,7.75
2023-04-15T07:45:36.868Z,7.75
2023-04-15T07:46:38.774Z,7.75
2023-04-15T07:47:41.953Z,7.77
2023-04-15T07:48:43.869Z,7.78
2023-04-15T07:49:46.323Z,7.81
2023-04-15T07:50:48.259Z,7.81
2023-04-15T07:51:49.985Z,7.83
2023-04-15T07:52:52.103Z,7.85
2023-04-15T07:53:54.989Z,7.86
2023-04-15T07:54:56.588Z,7.82
2023-04-15T07:55:58.730Z,7.82
2023-04-15T07:57:00.493Z,7.80
2023-04-15T07:58:04.712Z,7.82
2023-04-15T07:59:06.567Z,7.82
2023-04-15T08:00:08.521Z,7.85
2023-04-15T08:01:16.669Z,7.86
2023-04-15T08:02:18.542Z,7.86
2023-04-15T08:03:21.032Z,7.89
2023-04-15T08:04:25.719Z,7.89
2023-04-15T08:05:27.341Z,7.90
2023-04-15T08:06:29.620Z,7.92
2023-04-15T08:07:31.380Z,7.95
2023-04-15T08:08:32.858Z,7.94
2023-04-15T08:09:34.736Z,7.95
2023-04-15T08:10:37.545Z,7.95
2023-04-15T08:11:39.033Z,7.96
2023-04-15T08:12:40.804Z,7.97
2023-04-15T08:13:42.561Z,7.98
2023-04-15T08:14:46.962Z,7.99
2023-04-15T08:15:54.016Z,8.01
2023-04-15T08:16:55.894Z,8.01
2023-04-15T08:17:57.423Z,8.03
2023-04-15T08:18:59.036Z,8.04
2023-04-15T08:20:01.006Z,8.05
2023-04-15T08:21:02.619Z,8.02
2023-04-15T08:22:04.221Z,8.03
2023-04-15T08:23:05.809Z,8.03
2023-04-15T08:24:07.990Z,8.04
2023-04-15T08:25:13.062Z,8.04
2023-04-15T08:26:14.994Z,8.06
2023-04-15T08:27:19.024Z,8.08
2023-04-15T08:28:21.460Z,8.10
2023-04-15T08:29:23.169Z,8.12
2023-04-15T08:30:25.350Z,8.17
2023-04-15T08:31:29.786Z,8.19
2023-04-15T08:32:31.376Z,8.21
2023-04-15T08:33:32.897Z,8.23
2023-04-15T08:34:34.946Z,8.27
2023-04-15T08:35:36.461Z,8.29
2023-04-15T08:36:38.209Z,8.32
2023-04-15T08:37:42.914Z,8.35
2023-04-15T08:38:44.970Z,8.37
2023-04-15T08:39:46.470Z,8.37
2023-04-15T08:40:48.144Z,8.39
2023-04-15T08:41:59.528Z,8.39
2023-04-15T08:43:05.463Z,8.42
2023-04-15T08:44:07.242Z,8.43
2023-04-15T08:45:09.491Z,8.47
2023-04-15T08:46:12.493Z,8.50
2023-04-15T08:47:14.983Z,8.54
2023-04-15T08:48:17.201Z,8.58
2023-04-15T08:49:19.373Z,8.60
2023-04-15T08:50:21.101Z,8.63
2023-04-15T08:51:25.142Z,8.69
2023-04-15T08:52:27.029Z,8.75
2023-04-15T08:53:29.836Z,8.78
2023-04-15T08:54:33.005Z,8.77
2023-04-15T08:55:36.283Z,8.80
2023-04-15T08:56:39.620Z,8.85
2023-04-15T08:57:41.657Z,8.86
2023-04-15T08:58:47.710Z,8.87
2023-04-15T08:59:49.796Z,8.92
2023-04-15T09:00:51.620Z,8.93
2023-04-15T09:01:56.785Z,8.97
2023-04-15T09:03:01.470Z,9.02
2023-04-15T09:04:03.854Z,9.07
2023-04-15T09:05:07.755Z,9.11
2023-04-15T09:06:09.655Z,9.14
2023-04-15T09:07:11.508Z,9.20
2023-04-15T09:08:13.303Z,9.28
2023-04-15T09:09:15.050Z,9.34
2023-04-15T09:10:17.185Z,9.42
2023-04-15T09:11:20.354Z,9.48
2023-04-15T09:12:22.165Z,9.51
2023-04-15T09:13:24.027Z,9.55
2023-04-15T09:14:25.933Z,9.60
2023-04-15T09:15:29.568Z,9.64
2023-04-15T09:16:31.850Z,9.69
2023-04-15T09:17:34.161Z,9.75
2023-04-15T09:18:37.138Z,9.78
2023-04-15T09:19:38.884Z,9.81
2023-04-15T09:20:44.033Z,9.83
2023-04-15T09:21:47.434Z,9.84
2023-04-15T09:22:52.504Z,9.83
2023-04-15T09:24:00.099Z,9.85
2023-04-15T09:25:01.735Z,9.85
2023-04-15T09:26:03.792Z,9.86
2023-04-15T09:27:05.589Z,9.87
2023-04-15T09:28:07.110Z,9.88
2023-04-15T09:29:15.698Z,9.90
2023-04-15T09:30:17.487Z,9.91
2023-04-15T09:31:22.015Z,9.92
2023-04-15T09:32:26.945Z,9.91
2023-04-15T09:33:29.646Z,9.92
2023-04-15T09:34:37.921Z,9.95
2023-04-15T09:35:42.340Z,9.97
2023-04-15T09:36:48.539Z,10.00
2023-04-15T09:37:51.418Z,10.07
2023-04-15T09:38:54.712Z,10.09
2023-04-15T09:39:56.243Z,10.13
2023-04-15T09:40:59.038Z,10.17
2023-04-15T09:42:07.528Z,10.21
2023-04-15T09:43:14.586Z,10.28
2023-04-15T09:44:25.430Z,10.34
2023-04-15T09:45:29.580Z,10.40
2023-04-15T09:46:42.887Z,10.46
2023-04-15T09:47:47.809Z,10.53
2023-04-15T09:49:07.163Z,10.53
2023-04-15T09:50:08.935Z,10.55
2023-04-15T09:51:10.681Z,10.57
2023-04-15T09:52:16.269Z,10.61
2023-04-15T09:53:19.375Z,10.66
2023-04-15T09:54:21.491Z,10.68
2023-04-15T09:55:25.436Z,10.72
2023-04-15T09:56:35.882Z,10.78
2023-04-15T09:57:41.132Z,10.83
2023-04-15T09:58:43.285Z,10.89
2023-04-15T09:59:44.756Z,10.92
2023-04-15T10:00:47.474Z,10.96
2023-04-15T10:01:51.371Z,11.04
2023-04-15T10:02:56.062Z,11.12
2023-04-15T10:03:58.444Z,11.18
2023-04-15T10:05:01.550Z,11.21
2023-04-15T10:06:03.886Z,11.25
2023-04-15T10:07:06.310Z,11.27
2023-04-15T10:08:12.359Z,11.30
2023-04-15T10:09:13.767Z,11.30
2023-04-15T10:10:15.535Z,11.31
2023-04-15T10:11:18.677Z,11.33
2023-04-15T10:12:20.725Z,11.39
2023-04-15T10:13:23.758Z,11.43
2023-04-15T10:14:26.326Z,11.50
2023-04-15T10:15:28.691Z,11.55
2023-04-15T10:16:32.644Z,11.61
2023-04-15T10:17:35.529Z,11.68
2023-04-15T10:18:41.206Z,11.73
2023-04-15T10:19:43.057Z,11.80
2023-04-15T10:20:45.138Z,11.76
2023-04-15T10:21:47.265Z,11.76
2023-04-15T10:22:48.780Z,11.78
2023-04-15T10:23:50.507Z,11.80
2023-04-15T10:24:52.548Z,11.80
2023-04-15T10:25:54.822Z,11.83
2023-04-15T10:26:57.287Z,11.84
2023-04-15T10:28:00.167Z,11.89
2023-04-15T10:29:02.519Z,11.95
2023-04-15T10:30:04.387Z,12.03
2023-04-15T10:31:06.089Z,12.13
2023-04-15T10:32:09.299Z,12.18
2023-04-15T10:33:11.280Z,12.26
2023-04-15T10:34:13.643Z,12.36
2023-04-15T10:35:17.992Z,12.40
2023-04-15T10:36:20.553Z,12.41
2023-04-15T10:37:22.605Z,12.41
2023-04-15T10:38:36.031Z,12.43
2023-04-15T10:39:37.465Z,12.45
2023-04-15T10:40:39.445Z,12.43
2023-04-15T10:41:40.947Z,12.48
2023-04-15T10:42:42.428Z,12.50
2023-04-15T10:43:53.546Z,12.51
2023-04-15T10:44:57.106Z,12.54
2023-04-15T10:45:58.743Z,12.58
2023-04-15T10:47:03.706Z,12.59
2023-04-15T10:48:07.436Z,12.68
2023-04-15T10:49:12.778Z,12.74
2023-04-15T10:50:16.615Z,12.76
2023-04-15T10:51:28.578Z,12.81
2023-04-15T10:52:30.053Z,12.89
2023-04-15T10:53:32.005Z,12.87
2023-04-15T10:54:33.775Z,12.88
2023-04-15T10:55:35.632Z,12.88
2023-04-15T10:56:37.261Z,12.87
2023-04-15T10:57:39.794Z,12.84
2023-04-15T10:58:42.097Z,12.88
2023-04-15T11:00:12.800Z,12.89
2023-04-15T11:01:14.614Z,12.81
2023-04-15T11:02:16.191Z,12.77
2023-04-15T11:03:20.121Z,12.82
2023-04-15T11:04:41.864Z,12.87
2023-04-15T11:05:52.464Z,12.85
2023-04-15T11:07:05.799Z,12.91
2023-04-15T11:08:08.814Z,12.93
2023-04-15T11:09:30.572Z,13.01
2023-04-15T11:10:32.021Z,13.07
2023-04-15T11:11:52.419Z,13.12
2023-04-15T11:12:56.845Z,13.18
2023-04-15T11:13:58.443Z,13.13
2023-04-15T11:15:02.163Z,13.02
2023-04-15T11:16:03.758Z,13.05
2023-04-15T11:17:05.499Z,13.08
2023-04-15T11:18:16.497Z,13.07
2023-04-15T11:19:18.235Z,13.09
2023-04-15T11:20:19.805Z,13.12
2023-04-15T11:21:24.726Z,13.13
2023-04-15T11:22:28.315Z,13.10
2023-04-15T11:23:31.456Z,12.99
2023-04-15T11:24:32.851Z,12.96
2023-04-15T11:25:35.630Z,12.94
2023-04-15T11:26:38.389Z,12.85
2023-04-15T11:27:39.919Z,12.82
2023-04-15T11:28:48.236Z,12.79
2023-04-15T11:29:50.308Z,12.79
2023-04-15T11:30:51.826Z,12.79
2023-04-15T11:31:53.434Z,12.82
2023-04-15T11:32:56.782Z,12.83
2023-04-15T11:34:01.677Z,12.81
2023-04-15T11:35:03.539Z,12.78
2023-04-15T11:36:05.442Z,12.78
2023-04-15T11:37:07.905Z,12.78
2023-04-15T11:38:11.798Z,12.76
2023-04-15T11:39:13.598Z,12.68
2023-04-15T11:40:17.502Z,12.65
2023-04-15T11:41:22.571Z,12.62
2023-04-15T11:42:24.564Z,12.58
2023-04-15T11:43:26.852Z,12.52
2023-04-15T11:44:28.422Z,12.52
2023-04-15T11:45:29.964Z,12.51
2023-04-15T11:46:31.909Z,12.49
2023-04-15T11:47:33.655Z,12.47
2023-04-15T11:48:36.652Z,12.50
2023-04-15T11:49:41.488Z,12.49
2023-04-15T11:50:43.003Z,12.54
2023-04-15T11:51:44.944Z,12.50
2023-04-15T11:53:12.410Z,12.53
2023-04-15T11:54:18.758Z,12.56
2023-04-15T11:55:20.720Z,12.58
2023-04-15T11:56:24.970Z,12.56
2023-04-15T11:57:31.487Z,12.54
2023-04-15T11:58:34.603Z,12.52
2023-04-15T11:59:45.337Z,12.52
2023-04-15T12:01:00.697Z,12.54
2023-04-15T12:02:11.244Z,12.55
2023-04-15T12:03:14.669Z,12.58
2023-04-15T12:04:20.833Z,12.58
2023-04-15T12:05:24.953Z,12.60
2023-04-15T12:06:31.688Z,12.68
2023-04-15T12:07:33.471Z,12.78
2023-04-15T12:08:51.070Z,12.85
2023-04-15T12:09:56.829Z,12.89
2023-04-15T12:11:01.034Z,12.93
2023-04-15T12:12:02.643Z,12.96
2023-04-15T12:13:06.565Z,12.93
2023-04-15T12:14:08.014Z,12.91
2023-04-15T12:15:10.394Z,12.95
2023-04-15T12:16:12.344Z,12.96
2023-04-15T12:17:13.815Z,12.93
2023-04-15T12:18:18.705Z,12.90
2023-04-15T12:19:27.429Z,12.89
2023-04-15T12:20:31.557Z,12.93
2023-04-15T12:21:37.344Z,12.94
2023-04-15T12:22:39.490Z,12.96
2023-04-15T12:23:48.601Z,13.00
2023-04-15T12:24:54.629Z,13.05
2023-04-15T12:25:56.031Z,13.05
2023-04-15T12:26:58.138Z,13.09
2023-04-15T12:28:00.409Z,13.11
2023-04-15T12:29:02.716Z,13.11
2023-04-15T12:30:07.003Z,13.03
2023-04-15T12:31:09.951Z,13.05
2023-04-15T12:32:15.399Z,13.09
2023-04-15T12:33:17.259Z,13.08
2023-04-15T12:34:35.690Z,13.10
2023-04-15T12:35:37.523Z,13.06
2023-04-15T12:36:38.926Z,13.01
2023-04-15T12:37:40.575Z,13.03
2023-04-15T12:38:42.115Z,12.99
2023-04-15T12:39:44.619Z,12.94
2023-04-15T12:40:47.071Z,12.94
2023-04-15T12:41:48.514Z,12.92
2023-04-15T12:42:50.810Z,12.98
2023-04-15T12:43:52.343Z,13.04
2023-04-15T12:44:54.307Z,13.07
2023-04-15T12:45:55.886Z,13.05
2023-04-15T12:46:57.781Z,13.01
2023-04-15T12:47:59.545Z,13.01
2023-04-15T12:49:01.282Z,13.01
2023-04-15T12:50:03.312Z,12.99
2023-04-15T12:51:05.779Z,13.02
2023-04-15T12:52:07.404Z,13.10
2023-04-15T12:53:09.560Z,13.17
2023-04-15T12:54:11.034Z,13.20
2023-04-15T12:55:12.927Z,13.22
2023-04-15T12:56:14.653Z,13.28
2023-04-15T12:57:16.220Z,13.29
2023-04-15T12:58:17.925Z,13.32
2023-04-15T12:59:20.235Z,13.33
2023-04-15T13:00:21.696Z,13.29
2023-04-15T13:01:23.221Z,13.28
2023-04-15T13:02:27.062Z,13.29
2023-04-15T13:03:28.735Z,13.30
2023-04-15T13:04:31.257Z,13.34
2023-04-15T13:05:33.117Z,13.33
2023-04-15T13:06:38.522Z,13.32
2023-04-15T13:07:40.496Z,13.38
2023-04-15T13:08:47.965Z,13.43
2023-04-15T13:09:56.965Z,13.45
2023-04-15T13:10:58.516Z,13.51
2023-04-15T13:12:00.491Z,13.54
2023-04-15T13:13:02.164Z,13.60
2023-04-15T13:14:05.009Z,13.63
2023-04-15T13:15:07.068Z,13.64
2023-04-15T13:16:09.739Z,13.65
2023-04-15T13:17:11.593Z,13.66
2023-04-15T13:18:13.571Z,13.63
2023-04-15T13:19:15.332Z,13.68
2023-04-15T13:20:17.367Z,13.66
2023-04-15T13:21:19.256Z,13.62
2023-04-15T13:22:20.955Z,13.62
2023-04-15T13:23:22.518Z,13.49
2023-04-15T13:24:24.021Z,13.49
2023-04-15T13:25:26.216Z,13.46
2023-04-15T13:26:28.146Z,13.50
2023-04-15T13:27:29.708Z,13.56
2023-04-15T13:28:31.424Z,13.61
2023-04-15T13:29:32.848Z,13.69
2023-04-15T13:30:34.596Z,13.76
2023-04-15T13:31:38.601Z,13.81
2023-04-15T13:32:40.304Z,13.81
2023-04-15T13:33:41.802Z,13.78
2023-04-15T13:34:43.305Z,13.77
2023-04-15T13:35:44.745Z,13.80
2023-04-15T13:36:46.937Z,13.88
2023-04-15T13:37:48.870Z,13.93
2023-04-15T13:38:51.596Z,13.89
2023-04-15T13:39:53.508Z,13.83
2023-04-15T13:40:55.404Z,13.82
2023-04-15T13:41:59.836Z,13.80
2023-04-15T13:43:02.045Z,13.84
2023-04-15T13:44:06.316Z,13.90
2023-04-15T13:45:08.350Z,13.97
2023-04-15T13:46:09.958Z,14.03
2023-04-15T13:47:11.655Z,14.12
2023-04-15T13:48:13.242Z,14.12
2023-04-15T13:49:14.765Z,14.05